Time;durP1;ratioP1;P1;durP2;ratioP2;P2;SDS_P1;SDS_P2;PMS_P1;PMS_P2;Temp;Humidity;BMP_temperature;BMP_pressure;BME280_temperature;BME280_humidity;BME280_pressure;Samples;Min_cycle;Max_cycle;Signal;HPM_P1;HPM_P2
2023/02/08 00:00:07;;;;;;;0.50;0.50;;;-1.60;99.90;;;;;;5037512;28;20195;-79
2023/02/08 00:02:35;;;;;;;0.50;0.50;;;-1.50;99.90;;;;;;5038292;28;20188;-78
2023/02/08 00:05:02;;;;;;;0.50;0.40;;;-1.60;99.90;;;;;;5037748;28;20223;-79
2023/02/08 00:07:29;;;;;;;0.85;0.85;;;-1.70;99.90;;;;;;5037749;28;20617;-79
2023/02/08 00:09:55;;;;;;;0.50;0.50;;;-1.80;99.90;;;;;;5038047;28;20203;-78
2023/02/08 00:12:22;;;;;;;0.50;0.50;;;-1.80;99.90;;;;;;5037354;28;20611;-78
2023/02/08 00:14:49;;;;;;;2.92;2.72;;;-1.80;99.90;;;;;;5037507;28;20290;-78
2023/02/08 00:17:16;;;;;;;0.50;0.40;;;-1.70;99.90;;;;;;5037351;28;20223;-79
2023/02/08 00:19:44;;;;;;;1.45;1.17;;;-1.70;99.90;;;;;;5037293;28;20285;-78
2023/02/08 00:22:11;;;;;;;0.80;0.80;;;-1.70;99.90;;;;;;5036574;28;20617;-79
2023/02/08 00:24:38;;;;;;;0.80;0.80;;;-1.70;99.90;;;;;;5037536;28;20862;-78
2023/02/08 00:27:05;;;;;;;1.45;1.23;;;-1.80;99.90;;;;;;5051393;28;20289;-78
2023/02/08 00:29:32;;;;;;;0.50;0.40;;;-1.80;99.90;;;;;;5056365;28;20567;-78
2023/02/08 00:31:59;;;;;;;4.97;1.08;;;-1.80;99.90;;;;;;5056894;28;20221;-79
2023/02/08 00:34:26;;;;;;;1.73;1.63;;;-1.80;99.90;;;;;;5056105;28;20253;-78
2023/02/08 00:36:54;;;;;;;1.27;1.17;;;-1.70;99.90;;;;;;5056670;28;20285;-78
2023/02/08 00:39:23;;;;;;;1.15;1.05;;;-1.70;99.90;;;;;;5057472;28;20197;-78
2023/02/08 00:41:50;;;;;;;0.50;0.50;;;-1.70;99.90;;;;;;5057378;28;20221;-79
2023/02/08 00:44:17;;;;;;;0.70;0.70;;;-1.80;99.90;;;;;;5058074;28;20732;-78
2023/02/08 00:46:44;;;;;;;0.50;0.50;;;-1.80;99.90;;;;;;5056797;28;20202;-79
2023/02/08 00:49:11;;;;;;;5.57;4.35;;;-1.70;99.90;;;;;;5056596;28;20194;-79
2023/02/08 00:51:38;;;;;;;0.50;0.50;;;-1.70;99.90;;;;;;5056538;28;20202;-80
2023/02/08 00:54:06;;;;;;;1.05;1.05;;;-1.70;99.90;;;;;;5056866;28;20259;-78
2023/02/08 00:56:33;;;;;;;3.08;2.88;;;-1.70;99.90;;;;;;5056044;28;20265;-79
2023/02/08 00:58:59;;;;;;;1.08;1.08;;;-1.60;99.90;;;;;;5056642;28;20266;-78
2023/02/08 01:01:26;;;;;;;1.20;1.20;;;-1.80;99.90;;;;;;5056402;28;20198;-79
2023/02/08 01:03:53;;;;;;;0.50;0.40;;;-1.80;99.90;;;;;;5057258;28;20286;-79
2023/02/08 01:06:20;;;;;;;0.60;0.60;;;-1.80;99.90;;;;;;5056939;28;20230;-79
2023/02/08 01:08:47;;;;;;;0.50;0.45;;;-1.80;99.90;;;;;;5057399;28;20275;-78
2023/02/08 01:11:17;;;;;;;0.50;0.40;;;-1.90;99.90;;;;;;5057373;28;20633;-78
2023/02/08 01:13:44;;;;;;;0.50;0.50;;;-1.90;99.90;;;;;;5057169;28;20729;-78
2023/02/08 01:16:13;;;;;;;0.50;0.50;;;-2.00;99.90;;;;;;5056455;28;20289;-79
2023/02/08 01:18:40;;;;;;;0.50;0.50;;;-2.00;99.90;;;;;;5056496;28;20285;-79
2023/02/08 01:21:09;;;;;;;0.50;0.50;;;-2.00;99.90;;;;;;5056148;28;20289;-79
2023/02/08 01:23:36;;;;;;;2.00;1.77;;;-2.00;99.90;;;;;;5055403;28;20190;-79
2023/02/08 01:26:03;;;;;;;0.50;0.50;;;-2.00;99.90;;;;;;5055661;28;20257;-80
2023/02/08 01:28:31;;;;;;;1.20;1.20;;;-1.90;99.90;;;;;;5056471;28;20202;-78
2023/02/08 01:30:58;;;;;;;0.50;0.40;;;-1.90;99.90;;;;;;5056683;28;20256;-79
2023/02/08 01:33:25;;;;;;;1.05;1.05;;;-1.90;99.90;;;;;;5056567;28;20312;-79
2023/02/08 01:35:53;;;;;;;0.50;0.43;;;-1.90;99.90;;;;;;5056261;28;20221;-79
2023/02/08 01:38:20;;;;;;;0.50;0.50;;;-1.90;99.90;;;;;;5056024;28;20267;-79
2023/02/08 01:40:47;;;;;;;6.95;1.95;;;-1.90;99.90;;;;;;5056263;28;20209;-79
2023/02/08 01:43:21;;;;;;;0.50;0.50;;;-1.90;99.90;;;;;;5057735;28;20285;-79
2023/02/08 01:45:49;;;;;;;0.50;0.47;;;-1.90;99.90;;;;;;5056654;28;20232;-78
2023/02/08 01:48:20;;;;;;;1.70;1.63;;;-1.90;99.90;;;;;;5057025;28;20194;-78
2023/02/08 01:50:54;;;;;;;3.25;1.15;;;-1.90;99.90;;;;;;5056552;28;20537;-78
2023/02/08 01:53:22;;;;;;;0.50;0.40;;;-2.00;99.90;;;;;;5057306;28;20671;-79
2023/02/08 01:55:53;;;;;;;0.50;0.50;;;-1.90;99.90;;;;;;5056734;28;20246;-78
2023/02/08 01:58:20;;;;;;;2.70;2.55;;;-2.00;99.90;;;;;;5056758;28;20276;-79
2023/02/08 02:00:49;;;;;;;0.50;0.50;;;-2.00;99.90;;;;;;5055655;28;20584;-79
2023/02/08 02:03:17;;;;;;;1.15;1.15;;;-2.00;99.90;;;;;;5056317;28;20273;-78
2023/02/08 02:05:47;;;;;;;0.50;0.40;;;-2.10;99.90;;;;;;5055011;28;20238;-78
2023/02/08 02:08:14;;;;;;;1.95;1.85;;;-2.10;99.90;;;;;;5055877;28;20221;-78
2023/02/08 02:10:42;;;;;;;0.50;0.40;;;-2.20;99.90;;;;;;5056025;28;20667;-79
2023/02/08 02:13:12;;;;;;;0.50;0.50;;;-2.20;99.90;;;;;;5054549;28;20214;-79
2023/02/08 02:19:02;;;;;;;0.50;0.50;;;-2.20;99.90;;;;;;5054014;28;20178;-79
2023/02/08 02:21:52;;;;;;;0.50;0.43;;;-2.20;99.90;;;;;;5053401;28;20194;-78
2023/02/08 02:24:47;;;;;;;0.50;0.50;;;-2.20;99.90;;;;;;5052455;28;20310;-79
2023/02/08 02:27:26;;;;;;;0.50;0.40;;;-2.20;99.90;;;;;;5056191;28;20198;-79
2023/02/08 02:30:33;;;;;;;0.50;0.40;;;-2.20;99.90;;;;;;5055653;28;20195;-79
2023/02/08 02:33:25;;;;;;;0.50;0.40;;;-2.30;99.90;;;;;;5055190;28;20226;-77
2023/02/08 02:36:00;;;;;;;0.50;0.40;;;-2.30;99.90;;;;;;5055983;28;20755;-78
2023/02/08 02:38:37;;;;;;;0.50;0.50;;;-2.40;99.90;;;;;;5056667;28;20216;-78
2023/02/08 02:41:11;;;;;;;0.50;0.50;;;-2.40;99.90;;;;;;5055390;28;20280;-78
2023/02/08 02:43:45;;;;;;;0.50;0.50;;;-2.30;99.90;;;;;;5055612;28;20185;-78
2023/02/08 02:46:23;;;;;;;0.50;0.40;;;-2.40;99.90;;;;;;5054051;28;20209;-78
2023/02/08 02:48:59;;;;;;;0.50;0.40;;;-2.40;99.90;;;;;;5054990;28;20271;-79
2023/02/08 02:54:52;;;;;;;0.50;0.50;;;-2.40;99.90;;;;;;5053733;28;20243;-78
2023/02/08 02:57:24;;;;;;;0.50;0.50;;;-2.30;99.90;;;;;;5054628;28;20249;-78
2023/02/08 02:59:51;;;;;;;0.50;0.40;;;-2.30;99.90;;;;;;5055293;28;20609;-78
2023/02/08 03:02:18;;;;;;;0.50;0.40;;;-2.40;99.90;;;;;;5054666;28;20197;-78
2023/02/08 03:04:53;;;;;;;0.50;0.50;;;-2.40;99.90;;;;;;5054896;28;20688;-78
2023/02/08 03:07:33;;;;;;;0.50;0.40;;;-2.50;99.90;;;;;;5055672;28;20235;-79
2023/02/08 03:10:11;;;;;;;0.50;0.50;;;-2.50;99.90;;;;;;5055797;28;20207;-78
2023/02/08 03:12:49;;;;;;;0.50;0.47;;;-2.50;99.90;;;;;;5056127;28;20179;-78
2023/02/08 03:15:23;;;;;;;0.50;0.50;;;-2.50;99.90;;;;;;5055799;28;20220;-77
2023/02/08 03:18:02;;;;;;;1.08;0.88;;;-2.50;99.90;;;;;;5055761;28;20201;-78
2023/02/08 03:20:33;;;;;;;0.55;0.55;;;-2.50;99.90;;;;;;5055385;28;20830;-79
2023/02/08 03:23:08;;;;;;;0.60;0.60;;;-2.50;99.90;;;;;;5055122;28;20647;-78
2023/02/08 03:25:43;;;;;;;0.50;0.50;;;-2.40;99.90;;;;;;5056817;28;20314;-78
2023/02/08 03:28:18;;;;;;;0.50;0.50;;;-2.30;99.90;;;;;;5060022;28;20184;-78
2023/02/08 03:30:53;;;;;;;0.50;0.40;;;-2.40;99.90;;;;;;5059956;28;20186;-78
2023/02/08 03:33:25;;;;;;;5.47;1.20;;;-2.50;99.90;;;;;;5058238;28;20198;-79
2023/02/08 03:35:59;;;;;;;0.50;0.50;;;-2.40;99.90;;;;;;5057472;28;20218;-79
2023/02/08 03:38:31;;;;;;;0.50;0.50;;;-2.50;99.90;;;;;;5057916;28;20295;-78
2023/02/08 03:41:02;;;;;;;0.60;0.60;;;-2.50;99.90;;;;;;5058632;28;20601;-79
2023/02/08 03:43:33;;;;;;;0.60;0.60;;;-2.50;99.90;;;;;;5059134;28;20273;-78
2023/02/08 03:46:07;;;;;;;2.35;1.25;;;-2.50;99.90;;;;;;5058845;28;20274;-78
2023/02/08 03:48:36;;;;;;;6.63;2.00;;;-2.40;99.90;;;;;;5059121;28;20222;-79
2023/02/08 03:51:05;;;;;;;0.50;0.40;;;-2.50;99.90;;;;;;5057294;28;20198;-77
2023/02/08 03:53:37;;;;;;;0.50;0.40;;;-2.50;99.90;;;;;;5056207;28;20204;-76
2023/02/08 03:56:09;;;;;;;0.50;0.40;;;-2.60;99.90;;;;;;5056376;28;20659;-78
2023/02/08 03:58:41;;;;;;;1.17;1.17;;;-2.60;99.90;;;;;;5057127;28;20247;-78
2023/02/08 04:01:16;;;;;;;3.25;3.05;;;-2.60;99.90;;;;;;5060342;28;20202;-80
2023/02/08 04:03:44;;;;;;;0.50;0.50;;;-2.60;99.90;;;;;;5060352;28;20181;-79
2023/02/08 04:06:12;;;;;;;1.15;1.15;;;-2.70;99.90;;;;;;5057376;28;20632;-79
2023/02/08 04:08:39;;;;;;;1.40;1.30;;;-2.70;99.90;;;;;;5054948;28;20190;-79
2023/02/08 04:11:06;;;;;;;0.50;0.50;;;-2.70;99.90;;;;;;5056158;28;20281;-78
2023/02/08 04:13:33;;;;;;;0.50;0.40;;;-2.70;99.90;;;;;;5055399;28;20278;-78
2023/02/08 04:16:00;;;;;;;0.50;0.50;;;-2.70;99.90;;;;;;5055021;28;20224;-79
2023/02/08 04:18:27;;;;;;;0.50;0.40;;;-2.70;99.90;;;;;;5055487;28;20400;-78
2023/02/08 04:20:53;;;;;;;0.50;0.50;;;-2.70;99.90;;;;;;5055820;28;20623;-78
2023/02/08 04:23:22;;;;;;;0.50;0.50;;;-2.80;99.90;;;;;;5055585;28;20289;-78
2023/02/08 04:25:49;;;;;;;0.50;0.50;;;-2.70;99.90;;;;;;5055231;28;20277;-79
2023/02/08 04:28:15;;;;;;;0.85;0.82;;;-2.70;99.90;;;;;;5055777;28;20201;-78
2023/02/08 04:30:42;;;;;;;10.75;10.15;;;-2.70;99.90;;;;;;5055475;28;20285;-78
2023/02/08 04:33:11;;;;;;;0.50;0.40;;;-2.70;99.90;;;;;;5056385;28;20286;-77
2023/02/08 04:35:38;;;;;;;0.60;0.50;;;-2.70;99.90;;;;;;5055507;28;20667;-77
2023/02/08 04:38:05;;;;;;;1.15;1.15;;;-2.70;99.90;;;;;;5055588;28;20277;-79
2023/02/08 04:40:33;;;;;;;0.50;0.40;;;-2.70;99.90;;;;;;5047569;28;20393;-78
2023/02/08 04:43:01;;;;;;;0.50;0.40;;;-2.70;99.90;;;;;;5058977;28;20225;-79
2023/02/08 04:45:28;;;;;;;0.50;0.50;;;-2.70;99.90;;;;;;5059116;28;20206;-79
2023/02/08 04:47:55;;;;;;;0.50;0.50;;;-2.80;99.90;;;;;;5060282;28;20245;-78
2023/02/08 04:50:26;;;;;;;0.50;0.40;;;-2.80;99.90;;;;;;5059187;28;20273;-79
2023/02/08 04:52:52;;;;;;;0.50;0.50;;;-2.80;99.90;;;;;;5058485;28;20285;-79
2023/02/08 04:55:19;;;;;;;3.10;3.00;;;-2.80;99.90;;;;;;5058760;28;20306;-78
2023/02/08 04:57:47;;;;;;;0.93;0.93;;;-2.80;99.90;;;;;;5058978;28;20190;-78
2023/02/08 05:00:15;;;;;;;0.93;0.93;;;-2.80;99.90;;;;;;5058350;28;20198;-78
2023/02/08 05:02:42;;;;;;;0.50;0.50;;;-2.70;99.90;;;;;;5058506;28;20695;-78
2023/02/08 05:05:09;;;;;;;0.50;0.40;;;-2.80;99.90;;;;;;5057606;28;20226;-80
2023/02/08 05:07:36;;;;;;;0.50;0.50;;;-2.80;99.90;;;;;;5058794;28;20265;-78
2023/02/08 05:10:03;;;;;;;0.50;0.50;;;-2.80;99.90;;;;;;5059365;28;20616;-78
2023/02/08 05:12:30;;;;;;;0.50;0.50;;;-2.80;99.90;;;;;;5057459;28;20201;-80
2023/02/08 05:14:58;;;;;;;0.50;0.50;;;-2.70;99.90;;;;;;5056040;28;20844;-77
2023/02/08 05:17:25;;;;;;;0.50;0.40;;;-2.70;99.90;;;;;;5056572;28;20249;-78
2023/02/08 05:19:52;;;;;;;0.50;0.50;;;-2.80;99.90;;;;;;5056596;28;20195;-80
2023/02/08 05:22:18;;;;;;;0.50;0.40;;;-2.80;99.90;;;;;;5056698;28;20616;-79
2023/02/08 05:24:45;;;;;;;0.50;0.50;;;-2.80;99.90;;;;;;5055455;28;20753;-77
2023/02/08 05:27:12;;;;;;;0.50;0.50;;;-2.80;99.90;;;;;;5057032;28;20544;-78
2023/02/08 05:29:39;;;;;;;0.50;0.40;;;-2.80;99.90;;;;;;5055593;28;20286;-77
2023/02/08 05:32:07;;;;;;;0.68;0.68;;;-2.90;99.90;;;;;;5056003;28;20226;-79
2023/02/08 05:34:34;;;;;;;0.60;0.60;;;-2.90;99.90;;;;;;5055089;28;20254;-78
2023/02/08 05:37:01;;;;;;;0.50;0.50;;;-2.90;99.90;;;;;;5055773;28;20256;-78
2023/02/08 05:39:28;;;;;;;0.50;0.43;;;-2.90;99.90;;;;;;5056051;28;20271;-78
2023/02/08 05:41:55;;;;;;;1.33;1.23;;;-2.90;99.90;;;;;;5056346;28;20194;-80
2023/02/08 05:44:22;;;;;;;0.50;0.43;;;-2.90;99.90;;;;;;5056164;28;20576;-79
2023/02/08 05:46:48;;;;;;;0.50;0.40;;;-2.80;99.90;;;;;;5057946;28;20240;-78
2023/02/08 05:49:17;;;;;;;0.50;0.50;;;-2.80;99.90;;;;;;5056948;28;20285;-78
2023/02/08 05:51:44;;;;;;;1.08;1.05;;;-2.80;99.90;;;;;;5057738;28;20199;-79
2023/02/08 05:54:11;;;;;;;0.50;0.50;;;-2.80;99.90;;;;;;5058040;28;20321;-78
2023/02/08 05:56:37;;;;;;;0.50;0.40;;;-2.90;99.90;;;;;;5057669;28;20281;-80
2023/02/08 05:59:05;;;;;;;0.50;0.45;;;-2.90;99.90;;;;;;5056728;28;20727;-78
2023/02/08 06:01:31;;;;;;;3.17;3.08;;;-2.90;99.90;;;;;;5057502;28;20194;-78
2023/02/08 06:03:59;;;;;;;0.50;0.40;;;-2.90;99.90;;;;;;5056410;28;20232;-80
2023/02/08 06:06:27;;;;;;;0.50;0.50;;;-2.90;99.90;;;;;;5055859;28;20198;-80
2023/02/08 06:08:54;;;;;;;0.50;0.40;;;-2.90;99.90;;;;;;5056148;28;20560;-77
2023/02/08 06:11:21;;;;;;;0.55;0.40;;;-2.90;99.90;;;;;;5056318;28;20190;-78
2023/02/08 06:13:48;;;;;;;0.50;0.40;;;-2.90;99.90;;;;;;5056613;28;20197;-78
2023/02/08 06:16:15;;;;;;;0.50;0.50;;;-3.00;99.90;;;;;;5055001;28;20313;-78
2023/02/08 06:18:42;;;;;;;1.95;1.85;;;-3.00;99.90;;;;;;5055627;28;20221;-77
2023/02/08 06:21:09;;;;;;;0.50;0.40;;;-3.00;99.90;;;;;;5056402;28;20195;-78
2023/02/08 06:23:37;;;;;;;0.50;0.40;;;-2.90;99.90;;;;;;5055880;28;20292;-78
2023/02/08 06:26:04;;;;;;;0.50;0.50;;;-2.90;99.90;;;;;;5054840;28;20198;-79
2023/02/08 06:28:30;;;;;;;3.67;3.45;;;-2.90;99.90;;;;;;5055701;28;20194;-78
2023/02/08 06:30:58;;;;;;;8.25;7.45;;;-2.90;99.90;;;;;;5054852;28;20232;-77
2023/02/08 06:33:25;;;;;;;0.50;0.50;;;-3.00;99.90;;;;;;5055529;28;20200;-79
2023/02/08 06:35:52;;;;;;;0.50;0.50;;;-3.00;99.90;;;;;;5055011;28;20229;-78
2023/02/08 06:38:20;;;;;;;0.50;0.40;;;-2.90;99.90;;;;;;5054868;28;20205;-79
2023/02/08 06:40:49;;;;;;;0.90;0.90;;;-2.90;99.90;;;;;;5055240;28;20296;-78
2023/02/08 06:43:16;;;;;;;9.90;8.15;;;-2.90;99.90;;;;;;5054703;28;20210;-78
2023/02/08 06:45:44;;;;;;;0.50;0.50;;;-2.80;99.90;;;;;;5053074;28;20270;-78
2023/02/08 06:48:11;;;;;;;0.63;0.63;;;-2.80;99.90;;;;;;5051566;28;20300;-77
2023/02/08 06:50:38;;;;;;;3.35;2.40;;;-2.80;99.90;;;;;;5053603;28;20277;-78
2023/02/08 06:53:05;;;;;;;0.50;0.50;;;-2.80;99.90;;;;;;5052468;28;20201;-78
2023/02/08 06:55:32;;;;;;;1.02;1.02;;;-2.80;99.90;;;;;;5052665;28;20309;-76
2023/02/08 06:58:00;;;;;;;1.25;1.15;;;-2.70;99.90;;;;;;5052688;28;20198;-77
2023/02/08 07:00:27;;;;;;;0.60;0.60;;;-2.70;99.90;;;;;;5055252;28;20194;-76
2023/02/08 07:02:54;;;;;;;58.03;6.70;;;-2.70;99.90;;;;;;5057407;28;20198;-76
2023/02/08 07:05:21;;;;;;;0.57;0.55;;;-2.60;99.90;;;;;;5056596;28;20206;-77
2023/02/08 07:07:48;;;;;;;0.50;0.40;;;-2.70;99.90;;;;;;5056156;28;20201;-77
2023/02/08 07:10:15;;;;;;;0.95;0.95;;;-2.60;99.90;;;;;;5055678;28;20205;-78
2023/02/08 07:12:42;;;;;;;4.25;4.13;;;-2.60;99.90;;;;;;5054968;28;20205;-76
2023/02/08 07:15:12;;;;;;;0.50;0.40;;;-2.60;99.90;;;;;;5054878;28;20225;-77
2023/02/08 07:17:39;;;;;;;0.50;0.50;;;-2.50;99.90;;;;;;5055157;28;20298;-78
2023/02/08 07:20:07;;;;;;;0.50;0.50;;;-2.50;99.90;;;;;;5055519;28;20198;-77
2023/02/08 07:22:34;;;;;;;0.50;0.50;;;-2.50;99.90;;;;;;5056482;28;20268;-77
2023/02/08 07:25:01;;;;;;;0.50;0.50;;;-2.50;99.90;;;;;;5056251;28;20294;-77
2023/02/08 07:27:28;;;;;;;0.50;0.40;;;-2.50;99.90;;;;;;5055620;28;20191;-78
2023/02/08 07:29:55;;;;;;;3.95;3.70;;;-2.50;99.90;;;;;;5055244;28;20199;-78
2023/02/08 07:32:23;;;;;;;0.80;0.80;;;-2.40;99.90;;;;;;5068518;22;20270;-80
2023/02/08 07:34:50;;;;;;;0.50;0.50;;;-2.30;99.90;;;;;;5057788;28;20287;-76
2023/02/08 07:37:16;;;;;;;0.88;0.88;;;-2.20;99.90;;;;;;5066180;28;20225;-82
2023/02/08 07:39:43;;;;;;;1.45;0.90;;;-2.20;99.90;;;;;;5066195;28;20191;-81
2023/02/08 07:42:10;;;;;;;0.50;0.40;;;-2.00;99.90;;;;;;5066516;28;20240;-80
2023/02/08 07:44:37;;;;;;;0.55;0.55;;;-2.00;99.90;;;;;;5069529;28;20219;-81
2023/02/08 07:47:04;;;;;;;0.50;0.50;;;-1.70;99.90;;;;;;5069282;28;20211;-81
2023/02/08 07:49:33;;;;;;;0.50;0.40;;;-1.00;99.90;;;;;;5067880;28;20206;-80
2023/02/08 07:52:01;;;;;;;2.75;2.58;;;0.10;99.90;;;;;;5067424;28;20238;-80
2023/02/08 07:54:28;;;;;;;0.50;0.40;;;1.50;99.90;;;;;;5065515;28;20194;-78
2023/02/08 07:56:55;;;;;;;0.50;0.40;;;2.80;99.90;;;;;;5063022;28;20218;-81
2023/02/08 07:59:24;;;;;;;0.60;0.60;;;4.00;99.90;;;;;;5065756;28;20229;-79
2023/02/08 08:01:51;;;;;;;1.08;0.98;;;5.30;99.90;;;;;;5065081;28;20203;-80
2023/02/08 08:04:18;;;;;;;0.50;0.50;;;6.80;99.90;;;;;;5066188;28;20198;-81
2023/02/08 08:06:48;;;;;;;0.50;0.40;;;7.90;99.90;;;;;;5062277;28;20229;-78
2023/02/08 08:09:15;;;;;;;1.13;1.05;;;9.10;99.90;;;;;;5064137;28;20216;-80
2023/02/08 08:11:42;;;;;;;0.50;0.50;;;10.20;99.90;;;;;;5061013;28;20202;-81
2023/02/08 08:14:09;;;;;;;0.50;0.43;;;10.90;99.90;;;;;;5066242;28;20229;-81
2023/02/08 08:16:36;;;;;;;0.60;0.60;;;11.50;99.90;;;;;;5069440;28;20233;-81
2023/02/08 08:19:03;;;;;;;3.80;3.60;;;11.90;99.80;;;;;;5065501;28;20441;-80
2023/02/08 08:21:30;;;;;;;0.50;0.40;;;12.60;95.90;;;;;;5063502;28;20476;-80
2023/02/08 08:23:58;;;;;;;0.50;0.40;;;13.30;91.10;;;;;;5063619;28;21005;-82
2023/02/08 08:26:25;;;;;;;0.87;0.87;;;14.10;87.60;;;;;;5065989;28;20463;-80
2023/02/08 08:28:52;;;;;;;0.50;0.50;;;14.90;77.30;;;;;;5067078;28;20893;-82
2023/02/08 08:31:20;;;;;;;0.60;0.53;;;15.30;72.30;;;;;;5063964;28;20472;-81
2023/02/08 08:33:47;;;;;;;0.50;0.40;;;16.00;69.70;;;;;;5062823;28;20508;-80
2023/02/08 08:36:15;;;;;;;0.50;0.40;;;16.80;66.90;;;;;;5066345;28;20552;-82
2023/02/08 08:38:41;;;;;;;0.50;0.40;;;17.60;60.00;;;;;;5067744;28;20472;-82
2023/02/08 08:41:13;;;;;;;0.50;0.43;;;18.70;60.10;;;;;;5069309;28;20461;-82
2023/02/08 08:43:40;;;;;;;0.70;0.50;;;19.50;55.70;;;;;;5066546;28;20480;-78
2023/02/08 08:46:08;;;;;;;2.50;2.10;;;20.00;52.90;;;;;;5062747;28;20501;-82
2023/02/08 08:48:35;;;;;;;0.50;0.50;;;19.70;50.00;;;;;;5065196;28;21048;-79
2023/02/08 08:51:03;;;;;;;0.50;0.40;;;19.50;50.90;;;;;;5064168;28;20441;-81
2023/02/08 08:53:30;;;;;;;0.50;0.30;;;19.80;50.20;;;;;;5064151;28;20468;-80
2023/02/08 08:55:57;;;;;;;1.37;0.83;;;19.80;48.30;;;;;;5063856;28;20503;-80
2023/02/08 08:58:25;;;;;;;0.90;0.90;;;20.30;48.40;;;;;;5062962;28;20441;-80
2023/02/08 09:00:52;;;;;;;0.93;0.93;;;20.60;46.90;;;;;;5062461;28;20484;-79
2023/02/08 09:03:19;;;;;;;0.50;0.30;;;20.90;47.20;;;;;;5060833;28;20454;-81
2023/02/08 09:05:46;;;;;;;0.50;0.40;;;21.10;46.60;;;;;;5061635;28;20429;-82
2023/02/08 09:08:13;;;;;;;2.70;2.53;;;21.70;46.20;;;;;;5062959;28;20441;-80
2023/02/08 09:10:40;;;;;;;1.33;1.33;;;22.50;45.70;;;;;;5062124;28;20452;-79
2023/02/08 09:13:07;;;;;;;1.33;1.23;;;23.30;46.30;;;;;;5062124;28;20464;-83
2023/02/08 09:15:38;;;;;;;0.50;0.40;;;23.30;42.80;;;;;;5063166;28;20477;-80
2023/02/08 09:18:05;;;;;;;0.50;0.40;;;23.30;42.40;;;;;;5065378;28;20873;-83
2023/02/08 09:20:32;;;;;;;0.50;0.40;;;23.90;42.70;;;;;;5064522;28;20468;-81
2023/02/08 09:22:59;;;;;;;3.33;3.23;;;23.70;40.50;;;;;;5062808;28;20594;-83
2023/02/08 09:25:28;;;;;;;0.50;0.40;;;24.10;41.30;;;;;;5060650;28;20504;-82
2023/02/08 09:27:54;;;;;;;0.50;0.40;;;24.70;40.70;;;;;;5060442;28;20489;-80
2023/02/08 09:30:21;;;;;;;0.50;0.40;;;24.50;40.20;;;;;;5061058;28;20459;-80
2023/02/08 09:32:50;;;;;;;0.60;0.53;;;23.60;39.00;;;;;;5059272;28;20471;-82
2023/02/08 09:35:17;;;;;;;0.50;0.40;;;22.50;39.20;;;;;;5059739;28;20449;-79
2023/02/08 09:37:44;;;;;;;0.50;0.40;;;21.80;38.70;;;;;;5060425;28;20465;-80
2023/02/08 09:40:22;;;;;;;0.60;0.60;;;21.40;38.90;;;;;;5059979;28;20468;-82
2023/02/08 09:42:58;;;;;;;0.50;0.30;;;20.40;38.80;;;;;;5059413;28;20544;-81
2023/02/08 09:45:44;;;;;;;0.50;0.40;;;19.70;39.40;;;;;;5059619;28;20456;-79
2023/02/08 09:48:20;;;;;;;0.50;0.40;;;19.30;41.30;;;;;;5059688;28;20444;-81
2023/02/08 09:50:52;;;;;;;0.50;0.30;;;18.80;40.50;;;;;;5060125;28;20426;-79
2023/02/08 09:53:24;;;;;;;0.50;0.40;;;18.20;40.10;;;;;;5060795;28;20544;-82
2023/02/08 09:55:53;;;;;;;1.03;0.93;;;17.00;39.50;;;;;;5059173;28;20417;-81
2023/02/08 09:58:26;;;;;;;0.50;0.37;;;16.80;40.90;;;;;;5059792;28;20927;-81
2023/02/08 10:00:54;;;;;;;0.50;0.50;;;16.50;40.70;;;;;;5059969;28;20966;-82
2023/02/08 10:03:35;;;;;;;0.50;0.40;;;16.10;40.40;;;;;;5060970;28;20467;-81
2023/02/08 10:06:03;;;;;;;5.00;4.60;;;15.70;41.20;;;;;;5060262;28;20915;-83
2023/02/08 10:08:31;;;;;;;0.50;0.40;;;15.10;41.30;;;;;;5061022;28;20496;-82
2023/02/08 10:11:18;;;;;;;0.50;0.40;;;14.80;43.10;;;;;;5061087;28;20433;-82
2023/02/08 10:14:00;;;;;;;0.50;0.40;;;14.60;44.60;;;;;;5060110;28;20497;-82
2023/02/08 10:16:43;;;;;;;0.50;0.40;;;14.20;45.20;;;;;;5060545;28;20425;-82
2023/02/08 10:19:26;;;;;;;2.43;2.30;;;13.90;45.20;;;;;;5061009;28;20452;-82
2023/02/08 10:22:04;;;;;;;0.50;0.40;;;13.20;44.60;;;;;;5060401;28;20877;-82
2023/02/08 10:24:49;;;;;;;0.50;0.40;;;13.00;42.50;;;;;;5060649;28;20476;-82
2023/02/08 10:27:19;;;;;;;0.50;0.40;;;13.00;41.80;;;;;;5059127;28;20477;-81
2023/02/08 10:30:03;;;;;;;0.63;0.63;;;13.20;41.70;;;;;;5057889;28;20445;-81
2023/02/08 10:32:42;;;;;;;0.50;0.40;;;12.90;41.20;;;;;;5057904;28;20473;-83
2023/02/08 10:35:13;;;;;;;1.77;0.57;;;12.40;41.10;;;;;;5056935;28;20421;-83
2023/02/08 10:37:45;;;;;;;0.50;0.40;;;12.20;41.50;;;;;;5057241;28;20516;-83
2023/02/08 10:40:25;;;;;;;0.50;0.40;;;11.90;41.00;;;;;;5057096;28;20890;-81
2023/02/08 10:42:57;;;;;;;0.50;0.40;;;12.00;41.70;;;;;;5058016;28;20457;-83
2023/02/08 10:45:27;;;;;;;0.50;0.40;;;12.20;42.00;;;;;;5057230;28;20425;-81
2023/02/08 10:47:56;;;;;;;0.50;0.40;;;12.50;41.40;;;;;;5057093;28;20524;-81
2023/02/08 10:50:33;;;;;;;0.50;0.40;;;12.40;40.80;;;;;;5056777;28;20429;-83
2023/02/08 10:53:00;;;;;;;0.50;0.40;;;12.50;42.00;;;;;;5057284;28;20543;-82
2023/02/08 10:55:27;;;;;;;0.50;0.40;;;12.50;39.90;;;;;;5056919;28;20515;-81
2023/02/08 10:57:59;;;;;;;0.77;0.77;;;13.20;40.40;;;;;;5056990;28;20437;-82
2023/02/08 11:00:29;;;;;;;0.50;0.40;;;13.70;40.50;;;;;;5057864;28;20512;-83
2023/02/08 11:02:59;;;;;;;0.50;0.40;;;14.70;40.70;;;;;;5056577;28;20547;-82
2023/02/08 11:05:34;;;;;;;0.50;0.40;;;15.70;40.10;;;;;;5055710;28;20475;-84
2023/02/08 11:08:09;;;;;;;0.50;0.40;;;16.80;39.50;;;;;;5056983;28;20516;-83
2023/02/08 11:10:38;;;;;;;0.50;0.30;;;17.30;37.60;;;;;;5056845;28;20421;-81
2023/02/08 11:13:14;;;;;;;0.50;0.40;;;17.70;37.60;;;;;;5056143;28;20464;-80
2023/02/08 11:15:46;;;;;;;0.63;0.60;;;18.60;39.50;;;;;;5055850;28;20417;-80
2023/02/08 11:18:20;;;;;;;0.50;0.40;;;19.20;36.40;;;;;;5056636;28;20615;-80
2023/02/08 11:20:50;;;;;;;0.50;0.40;;;19.30;34.40;;;;;;5056408;28;20499;-81
2023/02/08 11:23:24;;;;;;;0.50;0.30;;;18.50;34.40;;;;;;5056054;28;21038;-79
2023/02/08 11:25:52;;;;;;;21.07;2.73;;;18.20;35.50;;;;;;5055673;28;20449;-80
2023/02/08 11:28:26;;;;;;;0.50;0.40;;;17.50;34.20;;;;;;5056947;28;20433;-81
2023/02/08 11:30:58;;;;;;;0.50;0.40;;;16.70;34.30;;;;;;5056403;28;20561;-80
2023/02/08 11:33:26;;;;;;;0.50;0.40;;;16.70;35.90;;;;;;5055886;28;20468;-81
2023/02/08 11:36:01;;;;;;;0.60;0.50;;;16.80;37.70;;;;;;5055733;28;20445;-80
2023/02/08 11:38:29;;;;;;;0.83;0.83;;;16.40;37.90;;;;;;5056713;28;20452;-79
2023/02/08 11:40:59;;;;;;;0.50;0.40;;;16.20;36.70;;;;;;5057059;28;20447;-80
2023/02/08 11:43:28;;;;;;;0.50;0.40;;;15.30;34.90;;;;;;5056960;28;20627;-81
2023/02/08 11:45:57;;;;;;;0.50;0.40;;;14.90;36.60;;;;;;5057303;28;20964;-81
2023/02/08 11:48:36;;;;;;;0.50;0.40;;;14.70;37.00;;;;;;5060374;28;20520;-80
2023/02/08 11:51:04;;;;;;;0.50;0.40;;;14.70;36.50;;;;;;5060211;28;20528;-80
2023/02/08 11:53:35;;;;;;;0.50;0.40;;;14.80;37.20;;;;;;5059978;28;20467;-80
2023/02/08 11:56:06;;;;;;;0.50;0.40;;;15.10;37.50;;;;;;5059125;28;20445;-82
2023/02/08 11:58:33;;;;;;;0.50;0.40;;;14.80;36.60;;;;;;5059512;28;20476;-81
2023/02/08 12:01:02;;;;;;;0.50;0.40;;;15.30;36.80;;;;;;5060089;28;20536;-81
2023/02/08 12:03:32;;;;;;;0.60;0.60;;;16.00;38.40;;;;;;5059791;28;20532;-82
2023/02/08 12:06:27;;;;;;;0.50;0.40;;;16.80;38.80;;;;;;5059014;28;20432;-83
2023/02/08 12:09:07;;;;;;;0.50;0.37;;;17.00;37.10;;;;;;5059797;28;20455;-81
2023/02/08 12:11:40;;;;;;;0.50;0.40;;;16.80;35.40;;;;;;5060027;28;20452;-82
2023/02/08 12:14:36;;;;;;;0.50;0.30;;;16.60;35.60;;;;;;5059695;28;20970;-83
2023/02/08 12:17:28;;;;;;;0.50;0.40;;;16.20;36.50;;;;;;5060002;28;20456;-82
2023/02/08 12:20:12;;;;;;;0.50;0.30;;;16.20;37.60;;;;;;5060254;28;20430;-83
2023/02/08 12:22:47;;;;;;;0.50;0.40;;;16.20;37.00;;;;;;5059936;28;20547;-79
2023/02/08 12:25:23;;;;;;;0.73;0.50;;;15.70;35.00;;;;;;5059713;28;20428;-82
2023/02/08 12:27:59;;;;;;;1.70;1.60;;;15.10;34.40;;;;;;5059961;28;20485;-81
2023/02/08 12:30:30;;;;;;;0.50;0.40;;;14.40;34.50;;;;;;5061416;28;20527;-82
2023/02/08 12:33:29;;;;;;;0.93;0.93;;;13.70;35.00;;;;;;5059914;28;20537;-82
2023/02/08 12:36:21;;;;;;;0.60;0.60;;;13.10;36.00;;;;;;5052430;28;20853;-82
2023/02/08 12:42:10;;;;;;;0.50;0.40;;;11.90;38.70;;;;;;5059406;28;20412;-82
2023/02/08 12:44:47;;;;;;;0.73;0.73;;;11.90;38.30;;;;;;5036962;28;20449;-82
2023/02/08 12:47:29;;;;;;;0.50;0.40;;;11.60;37.50;;;;;;5059011;28;20478;-82
2023/02/08 12:50:08;;;;;;;0.50;0.40;;;11.50;37.70;;;;;;5059866;28;20425;-82
2023/02/08 12:52:38;;;;;;;0.50;0.40;;;11.50;38.00;;;;;;5059557;28;20461;-83
2023/02/08 12:55:16;;;;;;;0.50;0.40;;;11.30;38.10;;;;;;5058666;28;20444;-82
2023/02/08 12:57:47;;;;;;;0.50;0.50;;;10.90;37.70;;;;;;5059548;28;20444;-82
2023/02/08 13:00:21;;;;;;;1.80;1.70;;;10.80;37.80;;;;;;5059827;28;20434;-82
2023/02/08 13:02:56;;;;;;;0.50;0.40;;;10.40;37.60;;;;;;5059188;28;20461;-84
2023/02/08 13:05:26;;;;;;;0.50;0.40;;;10.60;38.90;;;;;;5059078;28;20489;-81
2023/02/08 13:08:01;;;;;;;0.50;0.40;;;10.90;39.40;;;;;;5058013;28;21035;-83
2023/02/08 13:10:34;;;;;;;0.50;0.40;;;11.00;39.30;;;;;;5058401;28;20873;-82
2023/02/08 13:13:11;;;;;;;0.50;0.40;;;11.20;40.40;;;;;;5059632;28;20808;-81